Terminal Aerodrome Forecast
Issued by NWS

Home | Current Version | Previous Version | Text Only | Print | Product List | Glossary On
Versions: 1 2 3 4 5 6 7 8 9 10 11 12 13 14 15 16
055
FTUS43 KDLH 271742
TAFBRD
TAF
KBRD 271742Z 2718/2818 20007KT P6SM BKN150
     FM280700 18005KT P6SM SCT200 WS020/23035KT
     FM281100 07005KT P6SM SCT250=

USA.gov is the U.S. government's official web portal to all federal, state and local government web resources and services.